createdAt,value
2019-05-14T00:04:34.250Z,101616.98
2019-05-14T00:09:37.477Z,101621.41
2019-05-14T00:14:43.630Z,101611.53
2019-05-14T00:19:45.628Z,101603.87
2019-05-14T00:24:48.853Z,101601.98
2019-05-14T00:29:52.067Z,101598.63
2019-05-14T00:34:55.280Z,101601.34
2019-05-14T00:39:58.516Z,101592.83
2019-05-14T00:45:01.733Z,101592.83
2019-05-14T00:50:06.969Z,101602.04
2019-05-14T00:55:11.780Z,101595.22
2019-05-14T01:00:15.189Z,101599.86
2019-05-14T01:05:18.392Z,101597.31
2019-05-14T01:10:22.171Z,101593.22
2019-05-14T01:15:25.505Z,101591.86
2019-05-14T01:20:28.704Z,101587.43
2019-05-14T01:25:32.026Z,101595.30
2019-05-14T01:30:35.236Z,101586.79
2019-05-14T01:35:38.447Z,101596.84
2019-05-14T01:40:42.079Z,101592.58
2019-05-14T01:45:45.457Z,101600.42
2019-05-14T01:50:48.668Z,101595.48
2019-05-14T01:55:52.200Z,101597.91
2019-05-14T02:00:55.585Z,101590.23
2019-05-14T02:06:01.203Z,101592.63
2019-05-14T02:11:03.733Z,101599.44
2019-05-14T02:16:06.972Z,101591.78
2019-05-14T02:21:11.801Z,101594.33
2019-05-14T02:26:15.173Z,101590.95
2019-05-14T02:31:20.176Z,101587.90
2019-05-14T02:36:23.338Z,101591.98
2019-05-14T02:41:29.666Z,101588.75
2019-05-14T02:46:31.496Z,101585.69
2019-05-14T02:51:34.715Z,101582.83
2019-05-14T02:56:40.280Z,101585.89
2019-05-14T03:01:42.869Z,101584.53
2019-05-14T03:06:46.082Z,101583.68
2019-05-14T03:11:49.295Z,101585.55
2019-05-14T03:16:52.504Z,101588.80
2019-05-14T03:21:55.720Z,101582.19
2019-05-14T03:26:59.008Z,101585.42
2019-05-14T03:32:03.693Z,101584.58
2019-05-14T03:37:13.220Z,101579.98
2019-05-14T03:42:12.172Z,101583.55
2019-05-14T03:47:15.381Z,101585.09
2019-05-14T03:52:20.034Z,101579.64
2019-05-14T03:57:23.519Z,101577.97
2019-05-14T04:02:29.512Z,101574.70
2019-05-14T04:07:31.671Z,101570.31
2019-05-14T04:12:34.901Z,101577.13
2019-05-14T04:17:42.157Z,101573.34
2019-05-14T04:22:43.039Z,101566.53
2019-05-14T04:27:49.127Z,101571.42
2019-05-14T04:32:51.220Z,101569.80
2019-05-14T04:37:54.391Z,101576.48
2019-05-14T04:42:59.160Z,101575.56
2019-05-14T04:48:22.546Z,101580.88
2019-05-14T04:53:09.083Z,101575.10
2019-05-14T04:58:12.682Z,101582.29
2019-05-14T05:03:19.667Z,101580.94
2019-05-14T05:08:20.824Z,101579.63
2019-05-14T05:13:24.317Z,101579.00
2019-05-14T05:18:29.513Z,101576.69
2019-05-14T05:23:32.480Z,101573.38
2019-05-14T05:28:35.696Z,101582.44
2019-05-14T05:33:38.912Z,101571.24
2019-05-14T05:38:42.127Z,101576.00
2019-05-14T05:43:45.341Z,101573.69
2019-05-14T05:48:48.557Z,101564.18
2019-05-14T05:53:51.769Z,101567.36
2019-05-14T05:58:54.993Z,101568.00
2019-05-14T06:03:58.418Z,101565.15
2019-05-14T06:09:01.721Z,101568.50
2019-05-14T06:14:04.886Z,101569.06
2019-05-14T06:19:08.397Z,101560.32
2019-05-14T06:24:11.786Z,101555.59
2019-05-14T06:29:14.998Z,101553.36
2019-05-14T06:34:18.831Z,101553.03
2019-05-14T06:39:22.104Z,101552.00
2019-05-14T06:44:25.482Z,101548.31
2019-05-14T06:49:29.128Z,101542.56
2019-05-14T06:54:32.480Z,101543.36
2019-05-14T06:59:37.936Z,101538.63
2019-05-14T07:04:40.633Z,101538.94
2019-05-14T07:09:43.851Z,101535.61
2019-05-14T07:14:48.202Z,101533.41
2019-05-14T07:19:51.679Z,101535.91
2019-05-14T07:24:54.909Z,101526.53
2019-05-14T07:29:58.452Z,101527.61
2019-05-14T07:35:01.705Z,101529.42
2019-05-14T07:40:05.489Z,101525.00
2019-05-14T07:45:09.563Z,101524.44
2019-05-14T07:50:13.063Z,101518.34
2019-05-14T07:55:18.541Z,101523.19
2019-05-14T08:00:21.377Z,101515.95
2019-05-14T08:05:24.589Z,101515.84
2019-05-14T08:10:29.014Z,101500.08
2019-05-14T08:15:32.293Z,101505.88
2019-05-14T08:20:37.827Z,101501.56
2019-05-14T08:25:40.452Z,101497.91
2019-05-14T08:30:43.696Z,101493.59
2019-05-14T08:35:48.845Z,101495.66
2019-05-14T08:40:51.847Z,101489.67
2019-05-14T08:52:03.143Z,101492.23
2019-05-14T08:57:09.377Z,101498.77
2019-05-14T09:02:11.294Z,101493.52
2019-05-14T09:07:15.290Z,101490.06
2019-05-14T09:12:18.886Z,101494.93
2019-05-14T09:17:22.252Z,101489.17
2019-05-14T09:22:25.482Z,101481.09
2019-05-14T09:27:29.345Z,101491.72
2019-05-14T09:32:32.694Z,101473.23
2019-05-14T09:37:35.899Z,101470.72
2019-05-14T09:42:39.560Z,101455.84
2019-05-14T09:47:48.172Z,101455.39
2019-05-14T09:52:49.587Z,101446.48
2019-05-14T09:57:52.819Z,101448.33
2019-05-14T10:02:56.041Z,101442.97
2019-05-14T10:07:59.526Z,101433.52
2019-05-14T10:13:02.847Z,101434.66
2019-05-14T10:18:11.074Z,101433.10
2019-05-14T10:23:11.035Z,101413.97
2019-05-14T10:28:14.250Z,101406.92
2019-05-14T10:33:18.109Z,101389.16
2019-05-14T10:38:21.667Z,101387.27
2019-05-14T10:43:24.873Z,101396.09
2019-05-14T10:48:29.094Z,101392.22
2019-05-14T10:53:32.510Z,101392.33
2019-05-14T10:58:35.727Z,101384.64
2019-05-14T11:03:39.011Z,101377.30
2019-05-14T11:08:42.175Z,101382.53
2019-05-14T11:13:45.466Z,101367.31
2019-05-14T11:18:49.892Z,101374.14
2019-05-14T11:23:53.391Z,101364.06
2019-05-14T11:28:58.614Z,101357.23
2019-05-14T11:34:01.584Z,101374.99
2019-05-14T11:39:09.080Z,101384.84
2019-05-14T11:44:11.509Z,101362.98
2019-05-14T11:49:14.744Z,101363.83
2019-05-14T11:54:19.697Z,101351.64
2019-05-14T11:59:22.919Z,101337.45
2019-05-14T12:04:28.234Z,101325.67
2019-05-14T12:09:31.070Z,101311.30
2019-05-14T12:14:34.287Z,101309.09
2019-05-14T12:19:39.383Z,101315.39
2019-05-14T12:24:42.457Z,101348.71
2019-05-14T12:29:45.662Z,101375.52
2019-05-14T12:34:49.086Z,101358.61
2019-05-14T12:39:52.490Z,101355.64
2019-05-14T12:44:58.339Z,101347.97
2019-05-14T12:50:00.645Z,101342.83
2019-05-14T12:55:09.075Z,101347.22
2019-05-14T13:00:12.859Z,101332.74
2019-05-14T13:05:18.313Z,101332.19
2019-05-14T13:10:21.062Z,101321.26
2019-05-14T13:15:24.277Z,101314.75
2019-05-14T13:20:29.068Z,101315.59
2019-05-14T13:25:32.504Z,101303.63
2019-05-14T13:30:35.724Z,101310.98
2019-05-14T13:35:39.177Z,101308.24
2019-05-14T13:40:42.518Z,101292.56
2019-05-14T13:45:45.903Z,101290.58
2019-05-14T13:50:49.332Z,101279.02
2019-05-14T13:55:57.638Z,101265.27
2019-05-14T14:00:59.163Z,101268.94
2019-05-14T14:06:02.597Z,101262.86
2019-05-14T14:11:05.828Z,101240.34
2019-05-14T14:16:14.795Z,101244.67
2019-05-14T14:21:14.000Z,101238.45
2019-05-14T14:26:18.389Z,101234.36
2019-05-14T14:31:21.793Z,101231.23
2019-05-14T14:36:25.004Z,101225.67
2019-05-14T14:41:28.531Z,101218.16
2019-05-14T14:46:31.725Z,101207.75
2019-05-14T14:51:41.743Z,101207.46
2019-05-14T14:56:39.891Z,101190.42
2019-05-14T15:01:43.144Z,101184.14
2019-05-14T15:06:46.332Z,101193.16
2019-05-14T15:11:49.575Z,101189.80
2019-05-14T15:16:52.781Z,101189.80
2019-05-14T15:21:56.006Z,101177.73
2019-05-14T15:27:07.488Z,101171.20
2019-05-14T15:32:04.186Z,101162.72
2019-05-14T15:37:08.986Z,101154.20
2019-05-14T15:42:13.678Z,101148.41
2019-05-14T15:47:18.955Z,101147.59
2019-05-14T15:52:22.433Z,101134.98
2019-05-14T15:57:28.626Z,101146.10
2019-05-14T16:02:30.584Z,101141.72
2019-05-14T16:07:33.811Z,101144.64
2019-05-14T16:12:39.941Z,101132.58
2019-05-14T16:17:49.924Z,101128.77
2019-05-14T16:22:46.956Z,101118.83
2019-05-14T16:27:50.183Z,101117.98
2019-05-14T16:32:53.405Z,101108.85
2019-05-14T16:37:59.040Z,101111.48
2019-05-14T16:43:01.593Z,101101.83
2019-05-14T16:48:04.824Z,101092.17
2019-05-14T16:53:11.686Z,101091.76
2019-05-14T16:58:13.019Z,101089.03
2019-05-14T17:03:18.842Z,101087.34
2019-05-14T17:08:21.198Z,101083.77
2019-05-14T17:13:24.434Z,101079.90
2019-05-14T17:18:28.702Z,101075.19
2019-05-14T17:23:32.231Z,101070.77
2019-05-14T17:28:37.612Z,101070.96
2019-05-14T17:33:40.414Z,101072.55
2019-05-14T17:38:43.634Z,101074.67
2019-05-14T17:43:48.790Z,101075.70
2019-05-14T17:48:51.807Z,101084.13
2019-05-14T17:53:55.051Z,101082.95
2019-05-14T17:58:58.276Z,101077.72
2019-05-14T18:04:01.505Z,101085.26
2019-05-14T18:09:05.697Z,101079.19
2019-05-14T18:14:11.931Z,101083.47
2019-05-14T18:19:13.900Z,101087.79
2019-05-14T18:24:18.925Z,101087.47
2019-05-14T18:29:22.074Z,101083.80
2019-05-14T18:34:25.292Z,101087.59
2019-05-14T18:39:28.532Z,101091.36
2019-05-14T18:44:31.763Z,101089.90
2019-05-14T18:49:34.982Z,101097.76
2019-05-14T18:54:38.747Z,101090.31
2019-05-14T18:59:42.206Z,101096.81
2019-05-14T19:04:45.426Z,101104.19
2019-05-14T19:09:49.438Z,101110.88
2019-05-14T19:14:52.766Z,101098.82
2019-05-14T19:19:55.970Z,101100.19
2019-05-14T19:24:59.195Z,101105.84
2019-05-14T19:30:03.223Z,101099.75
2019-05-14T19:35:08.639Z,101097.52
2019-05-14T19:40:12.669Z,101099.95
2019-05-14T19:45:15.897Z,101099.84
2019-05-14T19:50:19.213Z,101097.64
2019-05-14T19:55:22.447Z,101102.77
2019-05-14T20:00:25.679Z,101100.27
2019-05-14T20:05:28.895Z,101105.72
2019-05-14T20:10:32.115Z,101108.64
2019-05-14T20:15:35.346Z,101106.44
2019-05-14T20:20:38.573Z,101109.05
2019-05-14T20:25:41.780Z,101102.75
2019-05-14T20:35:48.522Z,101098.56
2019-05-14T20:40:52.166Z,101099.92
2019-05-14T20:45:55.389Z,101101.19
2019-05-14T20:50:58.626Z,101094.37
2019-05-14T20:56:01.844Z,101091.86
2019-05-14T21:01:05.076Z,101093.75
2019-05-14T21:06:09.046Z,101097.52
2019-05-14T21:11:12.362Z,101094.16
2019-05-14T21:16:15.579Z,101089.84
2019-05-14T21:21:18.813Z,101092.80
2019-05-14T21:26:21.999Z,101087.02
2019-05-14T21:31:28.228Z,101086.39
2019-05-14T21:36:30.780Z,101094.05
2019-05-14T21:41:34.774Z,101098.05
2019-05-14T21:46:39.722Z,101086.59
2019-05-14T21:51:42.935Z,101091.23
2019-05-14T21:56:46.146Z,101085.97
2019-05-14T22:01:49.355Z,101072.33
2019-05-14T22:06:52.578Z,101074.44
2019-05-14T22:11:58.148Z,101070.64
2019-05-14T22:17:00.725Z,101058.59
2019-05-14T22:22:03.936Z,101063.20
2019-05-14T22:27:09.439Z,101054.17
2019-05-14T22:32:12.141Z,101052.00
2019-05-14T22:37:15.354Z,101041.28
2019-05-14T22:42:18.935Z,101035.50
2019-05-14T22:47:22.257Z,101044.23
2019-05-14T22:52:25.469Z,101044.75
2019-05-14T22:57:31.024Z,101049.36
2019-05-14T23:02:34.005Z,101030.47
2019-05-14T23:07:38.330Z,101033.74
2019-05-14T23:12:41.821Z,101034.26
2019-05-14T23:17:45.042Z,101027.96
2019-05-14T23:22:49.210Z,101022.19
2019-05-14T23:27:52.841Z,101024.09
2019-05-14T23:32:56.068Z,101018.64
2019-05-14T23:37:59.289Z,101016.11
2019-05-14T23:43:02.502Z,101004.36
2019-05-14T23:48:05.727Z,101011.70
2019-05-14T23:53:09.399Z,101012.77
2019-05-14T23:58:12.825Z,101011.70
